Time;durP1;ratioP1;P1;durP2;ratioP2;P2;SDS_P1;SDS_P2;PMS_P1;PMS_P2;Temp;Humidity;BMP_temperature;BMP_pressure;BME280_temperature;BME280_humidity;BME280_pressure;Samples;Min_cycle;Max_cycle;Signal;HPM_P1;HPM_P2
2023/02/20 00:00:25;;;;;;;18.38;10.02;;;6.20;99.90;;;;;;5029247;28;20505;-69
2023/02/20 00:02:50;;;;;;;17.05;9.73;;;6.20;99.90;;;;;;5030121;28;20037;-64
2023/02/20 00:05:17;;;;;;;17.67;9.87;;;6.30;99.90;;;;;;5029167;28;20040;-69
2023/02/20 00:07:42;;;;;;;;;;;6.20;99.90;;;;;;5030414;28;20485;-68
2023/02/20 00:10:09;;;;;;;16.02;9.23;;;6.10;99.90;;;;;;5029486;28;19916;-69
2023/02/20 00:12:35;;;;;;;16.38;8.90;;;6.20;99.90;;;;;;5029527;28;20044;-65
2023/02/20 00:15:00;;;;;;;16.80;9.70;;;6.00;99.90;;;;;;5029350;28;20493;-68
2023/02/20 00:17:27;;;;;;;13.90;9.17;;;6.00;99.90;;;;;;5029654;28;20138;-68
2023/02/20 00:19:53;;;;;;;13.77;9.38;;;5.90;99.90;;;;;;5029421;28;20045;-69
2023/02/20 00:22:21;;;;;;;15.98;9.23;;;6.00;99.90;;;;;;5029602;28;20053;-68
2023/02/20 00:24:47;;;;;;;14.80;9.30;;;6.00;99.90;;;;;;5029850;28;20401;-64
2023/02/20 00:27:13;;;;;;;19.95;10.35;;;6.00;99.90;;;;;;5029561;28;20029;-68
2023/02/20 00:29:39;;;;;;;16.35;10.70;;;6.10;99.90;;;;;;5029405;28;20032;-69
2023/02/20 00:32:04;;;;;;;13.57;8.47;;;5.90;99.90;;;;;;5029412;28;20123;-67
2023/02/20 00:34:30;;;;;;;14.60;8.90;;;5.90;99.90;;;;;;5029798;28;20486;-67
2023/02/20 00:36:56;;;;;;;13.90;9.63;;;5.90;99.90;;;;;;5029158;28;20025;-68
2023/02/20 00:39:22;;;;;;;13.38;8.57;;;6.00;99.90;;;;;;5029172;28;20176;-68
2023/02/20 00:41:48;;;;;;;15.25;8.85;;;6.00;99.90;;;;;;5028558;28;20803;-68
2023/02/20 00:44:14;;;;;;;14.77;9.77;;;5.90;99.90;;;;;;5029214;28;20581;-65
2023/02/20 00:46:39;;;;;;;13.35;8.85;;;6.00;99.90;;;;;;5028602;28;20108;-70
2023/02/20 00:49:05;;;;;;;16.47;8.50;;;5.90;99.90;;;;;;5028700;28;20457;-65
2023/02/20 00:51:32;;;;;;;16.13;8.97;;;5.90;99.90;;;;;;5027165;28;20025;-70
2023/02/20 00:53:58;;;;;;;13.77;8.27;;;5.90;99.90;;;;;;5028308;28;20021;-67
2023/02/20 00:56:23;;;;;;;13.07;8.20;;;5.90;99.90;;;;;;5028734;28;20036;-69
2023/02/20 00:58:49;;;;;;;14.47;8.87;;;5.90;99.90;;;;;;5027509;28;20025;-68
2023/02/20 01:01:15;;;;;;;14.70;8.70;;;6.00;99.90;;;;;;5028774;28;20083;-65
2023/02/20 01:03:41;;;;;;;12.05;7.88;;;5.90;99.90;;;;;;5028100;28;20481;-66
2023/02/20 01:06:07;;;;;;;11.82;8.20;;;5.80;99.90;;;;;;5028817;28;20476;-69
2023/02/20 01:08:33;;;;;;;11.87;8.33;;;5.90;99.90;;;;;;5028884;28;20034;-63
2023/02/20 01:10:58;;;;;;;15.87;10.13;;;6.10;99.90;;;;;;5028682;28;20029;-66
2023/02/20 01:13:25;;;;;;;13.50;8.40;;;5.70;99.90;;;;;;5028718;28;20037;-68
2023/02/20 01:15:50;;;;;;;15.35;8.45;;;5.60;99.90;;;;;;5026783;28;20257;-69
2023/02/20 01:18:16;;;;;;;16.40;9.07;;;5.60;99.90;;;;;;5029000;28;20044;-65
2023/02/20 01:20:42;;;;;;;12.53;8.70;;;5.60;99.90;;;;;;5028889;28;20026;-65
2023/02/20 01:23:07;;;;;;;13.93;8.93;;;5.70;99.90;;;;;;5028630;28;20809;-64
2023/02/20 01:25:33;;;;;;;14.17;8.67;;;5.60;99.90;;;;;;5027387;28;20025;-62
2023/02/20 01:27:58;;;;;;;11.37;7.57;;;5.60;99.90;;;;;;5028135;28;20088;-67
2023/02/20 01:30:24;;;;;;;12.90;7.80;;;5.70;99.90;;;;;;5027989;28;20029;-67
2023/02/20 01:32:50;;;;;;;15.07;8.33;;;5.60;99.90;;;;;;5028360;28;20033;-69
2023/02/20 01:35:16;;;;;;;17.23;9.80;;;5.60;99.90;;;;;;5028264;28;20280;-65
2023/02/20 01:37:42;;;;;;;19.90;9.80;;;5.40;99.90;;;;;;5028665;28;20029;-66
2023/02/20 01:40:15;;;;;;;18.95;10.75;;;5.40;99.90;;;;;;5028348;28;20369;-64
2023/02/20 01:42:40;;;;;;;15.63;10.05;;;5.30;99.90;;;;;;5027924;28;20109;-67
2023/02/20 01:45:22;;;;;;;14.43;8.80;;;5.30;99.90;;;;;;5028071;28;20108;-65
2023/02/20 01:47:50;;;;;;;15.68;9.77;;;5.30;99.90;;;;;;5027744;28;20037;-63
2023/02/20 01:50:20;;;;;;;17.25;10.13;;;5.30;99.90;;;;;;5028284;28;20076;-64
2023/02/20 01:52:51;;;;;;;13.93;8.30;;;5.30;99.90;;;;;;5028138;28;20040;-61
2023/02/20 01:55:23;;;;;;;17.08;9.23;;;5.30;99.90;;;;;;5027677;28;20517;-68
2023/02/20 01:58:11;;;;;;;18.25;9.70;;;5.40;99.90;;;;;;5027464;28;20037;-63
2023/02/20 02:00:37;;;;;;;15.55;8.98;;;5.40;99.90;;;;;;5027378;28;20038;-65
2023/02/20 02:03:12;;;;;;;13.60;8.73;;;5.40;99.90;;;;;;5027872;28;20036;-69
2023/02/20 02:05:50;;;;;;;15.10;8.13;;;5.30;99.90;;;;;;5027446;28;20509;-65
2023/02/20 02:08:18;;;;;;;18.52;10.35;;;5.20;99.90;;;;;;5027214;28;20036;-67
2023/02/20 02:11:09;;;;;;;14.88;9.10;;;5.10;99.90;;;;;;5026786;28;20040;-68
2023/02/20 02:13:36;;;;;;;17.20;9.43;;;5.10;99.90;;;;;;5026379;28;20532;-64
2023/02/20 02:16:11;;;;;;;14.43;9.48;;;5.20;99.90;;;;;;5027375;28;20032;-67
2023/02/20 02:18:51;;;;;;;20.98;10.73;;;5.20;99.90;;;;;;5027788;28;20066;-67
2023/02/20 02:21:35;;;;;;;17.20;9.02;;;5.10;99.90;;;;;;5027797;28;20095;-67
2023/02/20 02:24:25;;;;;;;14.15;9.02;;;5.10;99.90;;;;;;5027160;28;20025;-67
2023/02/20 02:27:39;;;;;;;12.70;8.57;;;4.90;99.90;;;;;;5027217;28;20108;-63
2023/02/20 02:30:29;;;;;;;20.98;10.02;;;5.00;99.90;;;;;;4946804;29;20035;-65
2023/02/20 02:33:00;;;;;;;17.80;10.40;;;4.90;99.90;;;;;;4946424;29;20043;-69
2023/02/20 02:36:04;;;;;;;17.30;10.80;;;4.80;99.90;;;;;;4999670;28;20056;-69
2023/02/20 02:38:44;;;;;;;15.20;10.07;;;4.80;99.90;;;;;;5026806;28;20056;-67
2023/02/20 02:41:27;;;;;;;20.48;10.65;;;4.60;99.90;;;;;;5026914;28;20053;-68
2023/02/20 02:43:52;;;;;;;17.58;9.63;;;4.70;99.90;;;;;;5027221;28;20044;-67
2023/02/20 02:46:39;;;;;;;17.33;8.77;;;4.90;99.90;;;;;;5027370;28;20025;-68
2023/02/20 02:49:46;;;;;;;17.20;9.80;;;5.00;99.90;;;;;;5026876;28;20040;-69
2023/02/20 02:52:37;;;;;;;14.63;9.35;;;4.90;99.90;;;;;;4998081;28;20038;-68
2023/02/20 02:54:58;;;;;;;16.55;10.05;;;4.90;99.90;;;;;;5006508;28;20038;-69
2023/02/20 02:57:25;;;;;;;17.67;10.53;;;4.80;99.90;;;;;;5007353;28;20022;-69
2023/02/20 03:00:09;;;;;;;16.08;9.77;;;4.80;99.90;;;;;;5006378;28;20050;-69
2023/02/20 03:02:49;;;;;;;14.93;10.02;;;4.80;99.90;;;;;;5022334;28;20034;-68
2023/02/20 03:05:19;;;;;;;18.67;11.85;;;4.40;99.90;;;;;;5007180;28;20030;-70
2023/02/20 03:07:50;;;;;;;16.08;9.95;;;4.40;99.90;;;;;;5007400;28;20129;-68
2023/02/20 03:10:19;;;;;;;15.82;10.80;;;4.60;99.90;;;;;;5007101;28;20026;-69
2023/02/20 03:12:49;;;;;;;17.02;10.07;;;4.70;99.90;;;;;;5006927;28;20053;-63
2023/02/20 03:15:38;;;;;;;19.60;9.93;;;4.70;99.90;;;;;;5012987;28;20033;-65
2023/02/20 03:18:19;;;;;;;22.45;10.02;;;4.60;99.90;;;;;;5027053;28;20036;-68
2023/02/20 03:20:57;;;;;;;15.63;10.00;;;4.70;99.90;;;;;;5023035;28;20113;-67
2023/02/20 03:23:30;;;;;;;16.13;10.35;;;4.50;99.90;;;;;;5019091;28;20036;-68
2023/02/20 03:26:01;;;;;;;19.73;10.65;;;4.50;99.90;;;;;;5024635;28;20057;-66
2023/02/20 03:28:40;;;;;;;18.33;10.32;;;4.60;99.90;;;;;;5010613;28;20397;-68
2023/02/20 03:31:08;;;;;;;16.70;9.57;;;4.70;99.90;;;;;;5010950;28;20037;-68
2023/02/20 03:44:58;;;;;;;17.67;10.88;;;4.50;99.90;;;;;;5030311;28;20047;-66
2023/02/20 03:47:27;;;;;;;15.35;9.55;;;4.40;99.90;;;;;;5030428;28;20029;-67
2023/02/20 03:49:54;;;;;;;15.13;9.48;;;4.40;99.90;;;;;;5030524;28;20057;-65
2023/02/20 03:52:21;;;;;;;18.55;9.68;;;4.50;99.90;;;;;;5030247;28;20552;-66
2023/02/20 03:54:47;;;;;;;;;;;4.30;99.90;;;;;;5030323;28;20037;-69
2023/02/20 03:57:17;;;;;;;17.13;10.75;;;4.10;99.90;;;;;;5029881;28;19916;-68
2023/02/20 04:00:01;;;;;;;14.65;9.77;;;4.00;99.90;;;;;;5029999;28;20116;-62
2023/02/20 04:02:38;;;;;;;15.23;10.15;;;4.00;99.90;;;;;;5030122;28;20022;-63
2023/02/20 04:05:19;;;;;;;14.20;9.95;;;3.90;99.90;;;;;;5029903;28;20017;-68
2023/02/20 04:08:09;;;;;;;17.45;10.40;;;4.00;99.90;;;;;;5029874;28;20033;-67
2023/02/20 04:10:45;;;;;;;19.40;10.82;;;3.90;99.90;;;;;;5022770;28;20038;-65
2023/02/20 04:13:13;;;;;;;18.80;11.05;;;4.00;99.90;;;;;;5029868;28;20032;-63
2023/02/20 04:15:40;;;;;;;15.70;10.38;;;4.00;99.90;;;;;;5029793;28;20040;-67
2023/02/20 04:18:06;;;;;;;18.65;10.23;;;3.90;99.90;;;;;;5061870;28;20026;-68
2023/02/20 04:20:31;;;;;;;17.47;10.70;;;3.90;99.90;;;;;;5029831;28;20030;-68
2023/02/20 04:23:05;;;;;;;18.08;10.70;;;4.00;99.90;;;;;;5029974;28;20029;-68
2023/02/20 04:25:51;;;;;;;18.35;12.25;;;3.90;99.90;;;;;;5029820;28;20037;-63
2023/02/20 04:28:17;;;;;;;15.77;10.35;;;4.00;99.90;;;;;;5029908;28;20033;-65
2023/02/20 04:30:43;;;;;;;15.00;10.25;;;3.90;99.90;;;;;;5029582;28;20040;-66
2023/02/20 04:33:11;;;;;;;16.70;10.43;;;3.90;99.90;;;;;;5028835;28;20100;-64
2023/02/20 04:35:36;;;;;;;24.20;11.95;;;3.90;99.90;;;;;;5029533;28;20025;-68
2023/02/20 04:38:02;;;;;;;21.37;11.57;;;3.80;99.90;;;;;;5029730;28;20067;-68
2023/02/20 04:40:28;;;;;;;17.10;10.90;;;3.80;99.90;;;;;;5029614;28;20116;-67
2023/02/20 04:42:53;;;;;;;15.20;10.07;;;3.70;99.90;;;;;;5029835;28;20072;-66
2023/02/20 04:45:19;;;;;;;16.73;11.27;;;3.80;99.90;;;;;;5029249;28;20099;-69
2023/02/20 04:47:45;;;;;;;18.20;11.93;;;3.70;99.90;;;;;;5029474;28;20477;-68
2023/02/20 04:50:23;;;;;;;17.63;10.80;;;3.70;99.90;;;;;;5029432;28;20041;-68
2023/02/20 04:52:49;;;;;;;18.98;10.45;;;3.70;99.90;;;;;;5018743;28;20553;-66
2023/02/20 04:55:15;;;;;;;15.25;10.32;;;3.60;99.90;;;;;;5026689;28;20064;-67
2023/02/20 04:57:41;;;;;;;18.10;10.80;;;3.60;99.90;;;;;;5026352;28;20041;-68
2023/02/20 05:00:09;;;;;;;18.77;11.40;;;3.70;99.90;;;;;;5027697;28;20026;-68
2023/02/20 05:02:36;;;;;;;18.33;11.60;;;3.70;99.90;;;;;;5027439;28;20452;-68
2023/02/20 05:05:02;;;;;;;22.50;12.90;;;3.70;99.90;;;;;;5024607;28;20032;-68
2023/02/20 05:07:28;;;;;;;20.38;13.20;;;3.70;99.90;;;;;;5024550;28;20039;-68
2023/02/20 05:09:53;;;;;;;20.00;11.87;;;3.70;99.90;;;;;;5026053;28;20033;-68
2023/02/20 05:12:19;;;;;;;18.17;11.93;;;3.70;99.90;;;;;;5025613;28;20583;-66
2023/02/20 05:14:45;;;;;;;20.23;11.53;;;3.60;99.90;;;;;;5026265;28;20052;-67
2023/02/20 05:17:10;;;;;;;17.77;11.23;;;3.60;99.90;;;;;;5024529;28;20111;-69
2023/02/20 05:19:36;;;;;;;17.80;11.17;;;3.50;99.90;;;;;;5025589;28;20029;-64
2023/02/20 05:22:20;;;;;;;17.03;11.63;;;3.50;99.90;;;;;;5025938;28;20094;-65
2023/02/20 05:24:48;;;;;;;20.42;10.90;;;3.50;99.90;;;;;;5022031;28;20033;-62
2023/02/20 05:27:17;;;;;;;21.25;11.57;;;3.50;99.90;;;;;;5026965;28;20440;-66
2023/02/20 05:29:48;;;;;;;21.33;12.95;;;3.50;99.90;;;;;;5026429;28;20076;-69
2023/02/20 05:32:15;;;;;;;16.75;11.65;;;3.50;99.90;;;;;;5026886;28;20738;-64
2023/02/20 05:34:41;;;;;;;20.95;12.25;;;3.50;99.90;;;;;;5027146;28;20507;-69
2023/02/20 05:37:07;;;;;;;20.55;12.93;;;3.50;99.90;;;;;;5026989;28;20120;-67
2023/02/20 05:39:32;;;;;;;21.80;12.47;;;3.40;99.90;;;;;;5027812;28;20132;-69
2023/02/20 05:41:58;;;;;;;22.33;12.43;;;3.50;99.90;;;;;;5032829;28;20060;-65
2023/02/20 05:44:24;;;;;;;19.03;11.57;;;3.40;99.90;;;;;;5030364;28;20064;-64
2023/02/20 05:46:49;;;;;;;20.70;11.70;;;3.40;99.90;;;;;;5026108;28;20061;-67
2023/02/20 05:49:16;;;;;;;21.30;11.97;;;3.40;99.90;;;;;;5028688;28;20137;-67
2023/02/20 05:51:42;;;;;;;24.35;13.00;;;3.40;99.90;;;;;;5028890;28;20106;-69
2023/02/20 05:54:08;;;;;;;20.63;13.02;;;3.40;99.90;;;;;;5028877;28;20428;-69
2023/02/20 05:56:33;;;;;;;20.83;12.13;;;3.40;99.90;;;;;;5024836;28;20494;-68
2023/02/20 05:59:00;;;;;;;18.17;11.83;;;3.40;99.90;;;;;;5033323;28;20031;-62
2023/02/20 06:01:27;;;;;;;;;;;3.30;99.90;;;;;;5027583;28;20304;-68
2023/02/20 06:03:53;;;;;;;22.73;12.45;;;3.30;99.90;;;;;;5031837;28;19909;-66
2023/02/20 06:06:19;;;;;;;21.40;12.07;;;3.30;99.90;;;;;;5030177;28;20052;-64
2023/02/20 06:08:46;;;;;;;17.90;11.50;;;3.20;99.90;;;;;;5027636;28;20692;-68
2023/02/20 06:11:12;;;;;;;16.75;11.07;;;3.20;99.90;;;;;;5026345;28;20583;-63
2023/02/20 06:13:45;;;;;;;18.48;12.57;;;3.10;99.90;;;;;;5028418;28;20521;-64
2023/02/20 06:16:11;;;;;;;21.10;13.05;;;3.20;99.90;;;;;;5011123;28;20042;-65
2023/02/20 06:18:39;;;;;;;20.98;12.45;;;3.20;99.90;;;;;;5027267;28;20029;-62
2023/02/20 06:21:09;;;;;;;22.92;13.98;;;3.10;99.90;;;;;;5026889;28;20037;-66
2023/02/20 06:23:36;;;;;;;24.55;15.27;;;3.10;99.90;;;;;;5024357;28;20041;-67
2023/02/20 06:26:01;;;;;;;22.73;13.35;;;3.20;99.90;;;;;;5028307;28;20536;-64
2023/02/20 06:28:27;;;;;;;27.13;14.40;;;3.10;99.90;;;;;;5028664;28;20025;-63
2023/02/20 06:30:53;;;;;;;23.47;14.63;;;3.20;99.90;;;;;;5030332;28;20041;-66
2023/02/20 06:33:18;;;;;;;22.87;14.60;;;3.20;99.90;;;;;;5030550;28;20041;-69
2023/02/20 06:35:44;;;;;;;29.20;14.53;;;3.20;99.90;;;;;;5030053;28;20037;-68
2023/02/20 06:38:09;;;;;;;28.57;15.40;;;3.20;99.90;;;;;;5022066;28;20030;-65
2023/02/20 06:40:35;;;;;;;24.37;14.87;;;3.10;99.90;;;;;;5029554;28;20040;-68
2023/02/20 06:43:00;;;;;;;22.60;14.57;;;3.10;99.90;;;;;;5026530;28;20041;-69
2023/02/20 06:45:26;;;;;;;22.87;13.67;;;3.10;99.90;;;;;;5032766;28;20043;-68
2023/02/20 06:47:51;;;;;;;23.43;13.47;;;3.30;99.90;;;;;;5025002;28;20037;-67
2023/02/20 06:50:17;;;;;;;28.17;13.73;;;3.30;99.90;;;;;;5027270;28;20033;-68
2023/02/20 06:52:43;;;;;;;22.98;13.73;;;3.30;99.90;;;;;;5031981;28;20049;-66
2023/02/20 06:55:08;;;;;;;25.10;14.83;;;3.20;99.90;;;;;;5031679;28;20040;-64
2023/02/20 06:57:34;;;;;;;26.40;13.60;;;3.20;99.90;;;;;;5022935;28;20084;-63
2023/02/20 07:00:00;;;;;;;24.23;14.40;;;3.20;99.90;;;;;;5026120;28;20072;-65
2023/02/20 07:02:25;;;;;;;22.53;13.50;;;3.20;99.90;;;;;;5027929;28;20363;-68
2023/02/20 07:04:51;;;;;;;24.20;13.30;;;3.30;99.90;;;;;;5029844;28;20040;-69
2023/02/20 07:07:16;;;;;;;24.90;13.67;;;3.30;99.90;;;;;;5030556;28;20056;-65
2023/02/20 07:09:42;;;;;;;24.60;14.20;;;3.30;99.90;;;;;;5027446;28;20551;-62
2023/02/20 07:12:08;;;;;;;24.30;14.23;;;3.30;99.90;;;;;;5033675;28;20279;-69
2023/02/20 07:14:33;;;;;;;26.63;14.90;;;3.40;99.90;;;;;;5027902;28;20087;-68
2023/02/20 07:16:59;;;;;;;23.40;14.07;;;3.60;99.90;;;;;;5024828;28;20033;-68
2023/02/20 07:19:24;;;;;;;30.35;14.80;;;3.70;99.90;;;;;;5026857;28;20055;-68
2023/02/20 07:21:50;;;;;;;22.90;13.67;;;3.80;99.90;;;;;;5027999;28;20057;-66
2023/02/20 07:24:16;;;;;;;37.03;14.20;;;3.90;99.90;;;;;;5029160;28;20033;-69
2023/02/20 07:26:42;;;;;;;26.50;14.40;;;4.00;99.90;;;;;;5023266;28;20061;-69
2023/02/20 07:29:07;;;;;;;35.13;14.80;;;4.10;99.90;;;;;;5033714;28;20067;-67
2023/02/20 07:31:33;;;;;;;26.90;13.88;;;4.20;99.90;;;;;;5025299;28;20503;-68
2023/02/20 07:33:59;;;;;;;21.30;12.25;;;4.00;99.90;;;;;;5031285;28;20036;-68
2023/02/20 07:36:25;;;;;;;26.07;14.33;;;4.00;99.90;;;;;;5029924;28;20420;-63
2023/02/20 07:38:59;;;;;;;29.60;13.63;;;3.90;99.90;;;;;;5027495;28;20481;-65
2023/02/20 07:41:28;;;;;;;33.08;15.00;;;4.00;99.90;;;;;;5023941;28;20128;-66
2023/02/20 07:43:54;;;;;;;23.15;13.02;;;4.20;99.90;;;;;;5026655;28;20034;-62
2023/02/20 07:46:20;;;;;;;24.95;15.20;;;4.40;99.90;;;;;;5020970;28;20033;-64
2023/02/20 07:48:46;;;;;;;31.73;15.57;;;4.60;99.90;;;;;;5024917;28;20074;-65
2023/02/20 07:51:12;;;;;;;32.75;16.52;;;4.90;99.90;;;;;;5026515;28;20166;-63
2023/02/20 07:53:37;;;;;;;27.00;15.93;;;5.70;99.90;;;;;;5026462;28;20398;-66
2023/02/20 07:56:05;;;;;;;27.40;14.90;;;6.20;99.90;;;;;;5024191;28;20036;-65
2023/02/20 07:58:30;;;;;;;31.23;14.93;;;6.20;99.90;;;;;;5024378;28;20056;-66
2023/02/20 08:00:56;;;;;;;22.83;13.70;;;6.30;99.90;;;;;;5024423;28;20387;-68
2023/02/20 08:03:21;;;;;;;25.93;13.87;;;6.40;99.90;;;;;;5026074;28;20021;-64
2023/02/20 08:05:47;;;;;;;35.10;16.17;;;6.80;99.90;;;;;;5023957;28;20515;-67
2023/02/20 08:08:13;;;;;;;32.15;15.73;;;7.60;99.90;;;;;;5030181;28;20033;-64
2023/02/20 08:10:39;;;;;;;27.75;15.43;;;8.40;99.90;;;;;;5031198;28;20046;-67
2023/02/20 08:13:05;;;;;;;34.92;15.55;;;8.80;99.90;;;;;;5028632;28;20034;-67
2023/02/20 08:15:30;;;;;;;20.50;12.13;;;9.30;99.90;;;;;;5028250;28;20037;-66
2023/02/20 08:17:56;;;;;;;23.77;11.93;;;9.30;99.90;;;;;;5030633;28;20036;-68
2023/02/20 08:20:22;;;;;;;19.37;11.50;;;9.20;99.90;;;;;;5029254;28;20037;-69
2023/02/20 08:22:49;;;;;;;20.10;10.97;;;9.80;99.90;;;;;;5029010;28;20033;-66
2023/02/20 08:25:16;;;;;;;20.02;10.25;;;9.60;99.30;;;;;;5028324;28;20029;-67
2023/02/20 08:27:47;;;;;;;23.85;11.25;;;8.70;99.90;;;;;;5029733;28;20033;-67
2023/02/20 08:30:16;;;;;;;26.55;11.82;;;8.50;99.90;;;;;;5027251;28;20046;-68
2023/02/20 08:32:41;;;;;;;21.67;10.82;;;8.80;99.90;;;;;;5035500;28;20040;-68
2023/02/20 08:35:07;;;;;;;16.93;12.07;;;8.70;99.90;;;;;;5027845;28;20048;-68
2023/02/20 08:37:33;;;;;;;19.17;12.60;;;8.60;99.90;;;;;;5027949;28;20040;-67
2023/02/20 08:39:59;;;;;;;18.57;11.30;;;8.30;99.90;;;;;;5029476;28;20470;-64
2023/02/20 08:42:25;;;;;;;18.00;11.82;;;8.20;99.90;;;;;;5029508;28;20030;-65
2023/02/20 08:44:50;;;;;;;16.37;11.67;;;8.10;99.90;;;;;;5027082;28;20034;-67
2023/02/20 08:47:19;;;;;;;19.90;12.10;;;8.30;99.90;;;;;;5029193;28;20064;-64
2023/02/20 08:49:47;;;;;;;18.02;10.52;;;9.10;99.90;;;;;;5025788;28;20433;-67
2023/02/20 08:52:13;;;;;;;15.07;10.30;;;10.00;99.90;;;;;;5027364;28;20029;-64
2023/02/20 08:54:38;;;;;;;14.70;8.97;;;10.70;99.90;;;;;;5026495;28;20048;-67
2023/02/20 08:57:04;;;;;;;12.73;9.43;;;11.50;99.90;;;;;;5027436;28;20292;-65
2023/02/20 08:59:32;;;;;;;40.43;12.40;;;11.20;99.90;;;;;;5027844;28;20109;-67
2023/02/20 09:01:58;;;;;;;18.13;9.48;;;11.20;99.90;;;;;;5026398;28;20029;-68
2023/02/20 09:04:23;;;;;;;18.97;9.50;;;11.70;99.90;;;;;;5027163;28;20581;-67
2023/02/20 09:06:49;;;;;;;18.23;10.77;;;13.10;98.40;;;;;;5027029;28;20029;-69
2023/02/20 09:09:15;;;;;;;14.67;9.80;;;14.00;96.40;;;;;;5026776;28;20156;-65
2023/02/20 09:11:41;;;;;;;18.88;9.30;;;15.00;94.70;;;;;;5027212;28;20036;-68
2023/02/20 09:14:06;;;;;;;15.00;9.13;;;15.90;91.70;;;;;;5025146;28;20030;-66
2023/02/20 09:16:32;;;;;;;12.40;8.90;;;15.90;91.20;;;;;;5026124;28;20037;-68
2023/02/20 09:18:59;;;;;;;10.67;8.50;;;14.90;92.10;;;;;;5027340;28;20083;-67
2023/02/20 09:21:26;;;;;;;12.25;8.45;;;14.00;93.90;;;;;;5025072;28;20037;-68
2023/02/20 09:23:52;;;;;;;16.85;8.07;;;13.60;94.60;;;;;;5025534;28;20710;-69
2023/02/20 09:26:17;;;;;;;16.30;8.03;;;13.30;95.80;;;;;;5024044;28;20028;-68
2023/02/20 09:28:43;;;;;;;11.47;8.10;;;13.20;96.90;;;;;;5025233;28;20746;-69
2023/02/20 09:31:09;;;;;;;10.90;7.93;;;12.90;97.30;;;;;;5025903;28;20036;-69
2023/02/20 09:33:34;;;;;;;15.23;8.77;;;12.70;98.00;;;;;;5025146;28;20099;-70
2023/02/20 09:36:00;;;;;;;11.00;8.03;;;12.60;98.80;;;;;;5026990;28;20048;-70
2023/02/20 09:38:28;;;;;;;13.43;8.13;;;12.40;98.50;;;;;;5026818;28;20037;-70
2023/02/20 09:40:57;;;;;;;11.13;8.07;;;12.50;99.20;;;;;;5024663;28;20057;-70
2023/02/20 09:43:25;;;;;;;10.43;8.20;;;12.30;99.00;;;;;;5025641;28;20029;-70
2023/02/20 09:45:57;;;;;;;14.13;8.80;;;12.40;99.00;;;;;;5027299;28;20438;-67
2023/02/20 09:48:37;;;;;;;16.90;8.13;;;12.40;98.60;;;;;;5024427;28;20108;-69
2023/02/20 09:51:05;;;;;;;14.63;8.65;;;12.50;99.60;;;;;;5025732;28;20029;-69
2023/02/20 09:53:52;;;;;;;11.95;8.52;;;12.50;99.90;;;;;;5024570;28;20025;-65
2023/02/20 09:56:25;;;;;;;11.20;7.90;;;12.40;98.40;;;;;;5025961;28;20026;-65
2023/02/20 09:58:59;;;;;;;16.30;8.35;;;12.30;99.20;;;;;;5021282;28;20033;-69
2023/02/20 10:01:26;;;;;;;13.50;8.40;;;12.10;98.40;;;;;;5024324;28;20029;-62
2023/02/20 10:04:02;;;;;;;9.38;7.70;;;12.00;99.90;;;;;;5025162;28;20040;-66
2023/02/20 10:06:31;;;;;;;15.98;8.63;;;12.10;99.60;;;;;;5025156;28;20052;-70
2023/02/20 10:08:57;;;;;;;12.77;7.95;;;12.20;99.90;;;;;;5025454;28;20076;-69
2023/02/20 10:11:53;;;;;;;10.05;7.82;;;12.20;99.00;;;;;;5025675;28;20519;-67
2023/02/20 10:14:31;;;;;;;9.82;7.80;;;11.90;99.90;;;;;;5024183;28;20060;-69
2023/02/20 10:17:16;;;;;;;10.43;7.72;;;12.10;98.70;;;;;;5039269;28;20064;-67
2023/02/20 10:19:54;;;;;;;15.48;7.30;;;11.90;99.60;;;;;;5018487;28;20030;-66
2023/02/20 10:22:26;;;;;;;10.95;7.20;;;11.90;99.70;;;;;;5022673;28;20098;-69
2023/02/20 10:25:05;;;;;;;19.13;8.82;;;12.00;99.70;;;;;;5024884;28;20021;-69
2023/02/20 10:27:31;;;;;;;26.05;8.90;;;12.20;99.60;;;;;;5023476;28;20144;-69
2023/02/20 10:29:58;;;;;;;18.23;9.63;;;12.20;99.40;;;;;;5026713;28;20113;-70
2023/02/20 10:32:50;;;;;;;14.25;8.18;;;12.30;99.30;;;;;;5023302;28;20075;-69
2023/02/20 10:35:22;;;;;;;15.68;8.45;;;12.40;98.90;;;;;;5019590;28;20042;-69
2023/02/20 10:37:53;;;;;;;14.38;10.05;;;12.70;98.00;;;;;;5017994;28;20069;-68
2023/02/20 10:40:42;;;;;;;12.30;7.20;;;12.70;98.40;;;;;;5024986;28;20017;-70
2023/02/20 10:43:26;;;;;;;12.43;7.75;;;12.50;98.10;;;;;;5023731;28;20079;-68
2023/02/20 10:46:00;;;;;;;15.15;8.30;;;12.30;98.10;;;;;;5025242;28;20034;-69
2023/02/20 10:48:30;;;;;;;13.65;8.38;;;12.20;98.90;;;;;;5025046;28;20125;-69
2023/02/20 10:51:12;;;;;;;14.35;7.70;;;12.50;99.00;;;;;;5028093;28;20033;-66
2023/02/20 10:53:51;;;;;;;15.98;7.25;;;12.60;98.70;;;;;;5022999;28;20037;-65
2023/02/20 10:56:25;;;;;;;15.82;8.57;;;12.40;98.20;;;;;;5023013;28;20041;-68
2023/02/20 10:59:17;;;;;;;11.77;7.85;;;12.40;98.90;;;;;;5023217;28;20029;-69
2023/02/20 11:01:48;;;;;;;15.52;7.50;;;12.40;98.00;;;;;;5014647;28;20409;-70
2023/02/20 11:04:24;;;;;;;13.07;8.52;;;13.10;97.60;;;;;;5017332;28;20041;-70
2023/02/20 11:07:09;;;;;;;16.27;8.48;;;12.50;98.20;;;;;;5023093;28;20091;-69
2023/02/20 11:09:34;;;;;;;12.73;7.38;;;12.20;98.70;;;;;;5022122;28;20033;-70
2023/02/20 11:12:00;;;;;;;11.00;8.63;;;12.00;99.20;;;;;;5025042;28;20151;-69
2023/02/20 11:14:33;;;;;;;12.20;8.35;;;11.80;99.90;;;;;;5024222;28;20795;-70
2023/02/20 11:17:14;;;;;;;13.40;7.75;;;11.70;99.90;;;;;;5019630;28;20034;-69
2023/02/20 11:19:50;;;;;;;17.88;7.28;;;11.70;99.90;;;;;;5024883;28;20116;-70
2023/02/20 11:22:18;;;;;;;11.40;7.85;;;11.60;99.90;;;;;;5022723;28;20021;-70
2023/02/20 11:24:45;;;;;;;9.50;7.50;;;11.50;99.90;;;;;;5023247;28;20778;-70
2023/02/20 11:27:23;;;;;;;10.90;7.60;;;11.50;99.90;;;;;;5021117;28;20058;-68
2023/02/20 11:29:54;;;;;;;11.15;8.63;;;11.40;99.90;;;;;;5025084;28;20088;-66
2023/02/20 11:32:39;;;;;;;11.75;7.78;;;11.40;99.90;;;;;;5016552;28;20037;-69
2023/02/20 11:35:17;;;;;;;10.68;8.07;;;11.40;99.90;;;;;;5017292;28;20053;-68
2023/02/20 11:37:45;;;;;;;10.95;7.53;;;11.30;99.90;;;;;;5017750;28;20033;-68
2023/02/20 11:40:20;;;;;;;13.27;7.35;;;11.40;99.90;;;;;;5025422;28;20029;-70
2023/02/20 11:42:45;;;;;;;9.90;7.70;;;11.40;99.90;;;;;;5026153;28;20037;-67
2023/02/20 11:45:29;;;;;;;14.87;7.57;;;11.50;99.90;;;;;;5027580;28;20029;-68
2023/02/20 11:48:24;;;;;;;12.85;7.57;;;11.40;99.80;;;;;;5027133;28;20033;-69
2023/02/20 11:50:52;;;;;;;10.55;7.43;;;11.40;99.90;;;;;;5012929;28;20045;-67
2023/02/20 11:53:30;;;;;;;18.40;7.70;;;11.50;99.90;;;;;;5026841;28;20053;-68
2023/02/20 11:56:08;;;;;;;11.20;6.70;;;11.50;99.90;;;;;;5018142;28;20038;-63
2023/02/20 11:58:34;;;;;;;9.50;6.65;;;11.60;99.90;;;;;;5027460;28;20068;-64
2023/02/20 12:01:00;;;;;;;8.07;6.35;;;11.60;99.60;;;;;;5027986;28;20502;-68
2023/02/20 12:03:34;;;;;;;10.77;6.50;;;11.60;99.90;;;;;;5025673;28;20030;-70
2023/02/20 12:06:21;;;;;;;8.93;5.82;;;11.70;99.70;;;;;;5027578;28;20097;-70
2023/02/20 12:08:52;;;;;;;9.07;6.30;;;11.80;99.90;;;;;;5026801;28;20049;-67
2023/02/20 12:11:24;;;;;;;10.27;6.30;;;11.90;99.30;;;;;;5024923;28;20449;-71
2023/02/20 12:13:52;;;;;;;11.38;5.75;;;12.00;99.20;;;;;;5024873;28;20087;-68
2023/02/20 12:16:44;;;;;;;8.75;5.45;;;11.90;99.30;;;;;;5023679;28;20501;-70
2023/02/20 12:19:12;;;;;;;8.75;5.55;;;12.10;99.10;;;;;;4997805;28;20123;-68
2023/02/20 12:22:15;;;;;;;8.02;4.97;;;12.20;99.10;;;;;;5024378;28;20044;-71
2023/02/20 12:25:01;;;;;;;7.30;4.65;;;12.30;97.60;;;;;;5023829;28;20036;-71
2023/02/20 12:27:51;;;;;;;9.85;4.85;;;12.30;98.00;;;;;;5025169;28;20025;-71
2023/02/20 12:30:46;;;;;;;14.43;6.43;;;12.40;97.40;;;;;;5026141;28;20026;-70
2023/02/20 12:33:23;;;;;;;8.13;5.20;;;12.50;98.40;;;;;;5023679;28;20037;-68
2023/02/20 12:36:04;;;;;;;8.05;5.07;;;12.70;97.70;;;;;;5024698;28;20041;-65
2023/02/20 12:38:48;;;;;;;7.85;5.18;;;12.70;98.00;;;;;;5020414;28;20052;-70
2023/02/20 12:41:48;;;;;;;9.25;4.55;;;12.70;97.30;;;;;;5019274;28;20551;-72
2023/02/20 12:44:29;;;;;;;8.65;4.68;;;12.90;98.00;;;;;;5026577;28;20033;-70
2023/02/20 12:47:19;;;;;;;7.65;4.93;;;13.00;96.70;;;;;;5026050;28;20037;-74
2023/02/20 12:49:59;;;;;;;5.55;4.00;;;13.00;96.90;;;;;;5023187;28;20057;-71
2023/02/20 12:52:43;;;;;;;7.03;4.40;;;13.00;96.20;;;;;;5026417;28;20038;-72
2023/02/20 12:55:21;;;;;;;6.80;4.22;;;13.10;97.50;;;;;;5026023;28;20139;-71
2023/02/20 12:57:59;;;;;;;7.75;4.30;;;13.10;96.10;;;;;;5027497;28;20034;-68
2023/02/20 13:00:39;;;;;;;8.50;4.80;;;13.10;96.80;;;;;;5027081;28;20405;-70
2023/02/20 13:03:04;;;;;;;8.52;5.32;;;13.20;96.50;;;;;;5024634;28;20067;-70
2023/02/20 13:05:33;;;;;;;7.77;5.33;;;13.20;96.80;;;;;;5027554;28;20025;-68
2023/02/20 13:08:31;;;;;;;18.55;7.30;;;13.20;96.80;;;;;;5027326;28;20029;-62
2023/02/20 13:10:59;;;;;;;8.63;4.85;;;13.30;96.50;;;;;;5025625;28;20048;-71